sensor_id;sensor_type;location;lat;lon;timestamp;P1;durP1;ratioP1;P2;durP2;ratioP2
14078;SDS011;7115;50.150;8.568;2022-08-25T00:01:34;4.73;;;1.90;;
14078;SDS011;7115;50.150;8.568;2022-08-25T00:04:06;3.97;;;2.10;;
14078;SDS011;7115;50.150;8.568;2022-08-25T00:06:36;2.47;;;1.80;;
14078;SDS011;7115;50.150;8.568;2022-08-25T00:09:04;3.90;;;1.77;;
14078;SDS011;7115;50.150;8.568;2022-08-25T00:11:32;5.07;;;1.73;;
14078;SDS011;7115;50.150;8.568;2022-08-25T00:14:02;5.30;;;2.07;;
14078;SDS011;7115;50.150;8.568;2022-08-25T00:16:32;2.63;;;1.73;;
14078;SDS011;7115;50.150;8.568;2022-08-25T00:19:01;4.00;;;1.87;;
14078;SDS011;7115;50.150;8.568;2022-08-25T00:21:33;3.37;;;1.77;;
14078;SDS011;7115;50.150;8.568;2022-08-25T00:24:01;2.50;;;2.13;;
14078;SDS011;7115;50.150;8.568;2022-08-25T00:26:29;4.73;;;1.87;;
14078;SDS011;7115;50.150;8.568;2022-08-25T00:28:56;2.90;;;2.00;;
14078;SDS011;7115;50.150;8.568;2022-08-25T00:31:27;5.63;;;2.10;;
14078;SDS011;7115;50.150;8.568;2022-08-25T00:34:05;3.07;;;2.07;;
14078;SDS011;7115;50.150;8.568;2022-08-25T00:36:37;3.90;;;1.70;;
14078;SDS011;7115;50.150;8.568;2022-08-25T00:39:04;3.00;;;2.20;;
14078;SDS011;7115;50.150;8.568;2022-08-25T00:41:33;4.63;;;2.20;;
14078;SDS011;7115;50.150;8.568;2022-08-25T00:44:01;2.53;;;2.03;;
14078;SDS011;7115;50.150;8.568;2022-08-25T00:46:33;3.60;;;2.17;;
14078;SDS011;7115;50.150;8.568;2022-08-25T00:49:25;4.40;;;2.50;;
14078;SDS011;7115;50.150;8.568;2022-08-25T00:52:04;4.00;;;2.33;;
14078;SDS011;7115;50.150;8.568;2022-08-25T00:54:41;7.63;;;2.47;;
14078;SDS011;7115;50.150;8.568;2022-08-25T00:57:13;4.80;;;2.50;;
14078;SDS011;7115;50.150;8.568;2022-08-25T00:59:41;4.10;;;2.37;;
14078;SDS011;7115;50.150;8.568;2022-08-25T01:02:10;5.17;;;2.37;;
14078;SDS011;7115;50.150;8.568;2022-08-25T01:04:39;4.07;;;2.60;;
14078;SDS011;7115;50.150;8.568;2022-08-25T01:07:14;3.53;;;2.30;;
14078;SDS011;7115;50.150;8.568;2022-08-25T01:09:44;6.83;;;2.60;;
14078;SDS011;7115;50.150;8.568;2022-08-25T01:12:12;2.70;;;2.37;;
14078;SDS011;7115;50.150;8.568;2022-08-25T01:14:39;5.27;;;2.80;;
14078;SDS011;7115;50.150;8.568;2022-08-25T01:17:07;3.53;;;2.50;;
14078;SDS011;7115;50.150;8.568;2022-08-25T01:19:34;6.10;;;2.80;;
14078;SDS011;7115;50.150;8.568;2022-08-25T01:22:01;2.40;;;2.03;;
14078;SDS011;7115;50.150;8.568;2022-08-25T01:27:05;5.40;;;2.50;;
14078;SDS011;7115;50.150;8.568;2022-08-25T01:29:32;5.17;;;2.67;;
14078;SDS011;7115;50.150;8.568;2022-08-25T01:32:02;4.30;;;2.87;;
14078;SDS011;7115;50.150;8.568;2022-08-25T01:34:32;5.00;;;2.40;;
14078;SDS011;7115;50.150;8.568;2022-08-25T01:37:01;3.43;;;2.50;;
14078;SDS011;7115;50.150;8.568;2022-08-25T01:39:29;2.93;;;2.33;;
14078;SDS011;7115;50.150;8.568;2022-08-25T01:44:32;3.03;;;2.73;;
14078;SDS011;7115;50.150;8.568;2022-08-25T01:47:01;6.13;;;2.70;;
14078;SDS011;7115;50.150;8.568;2022-08-25T01:49:29;4.03;;;2.50;;
14078;SDS011;7115;50.150;8.568;2022-08-25T01:51:56;3.97;;;2.40;;
14078;SDS011;7115;50.150;8.568;2022-08-25T01:54:28;3.90;;;2.90;;
14078;SDS011;7115;50.150;8.568;2022-08-25T01:56:56;5.97;;;2.53;;
14078;SDS011;7115;50.150;8.568;2022-08-25T01:59:24;3.13;;;2.63;;
14078;SDS011;7115;50.150;8.568;2022-08-25T02:01:52;6.17;;;2.73;;
14078;SDS011;7115;50.150;8.568;2022-08-25T02:04:25;2.83;;;2.63;;
14078;SDS011;7115;50.150;8.568;2022-08-25T02:06:58;5.17;;;2.90;;
14078;SDS011;7115;50.150;8.568;2022-08-25T02:09:25;4.60;;;3.37;;
14078;SDS011;7115;50.150;8.568;2022-08-25T02:11:53;3.90;;;2.97;;
14078;SDS011;7115;50.150;8.568;2022-08-25T02:14:19;3.83;;;2.87;;
14078;SDS011;7115;50.150;8.568;2022-08-25T02:16:49;4.57;;;2.63;;
14078;SDS011;7115;50.150;8.568;2022-08-25T02:19:18;4.80;;;2.87;;
14078;SDS011;7115;50.150;8.568;2022-08-25T02:21:46;4.60;;;2.70;;
14078;SDS011;7115;50.150;8.568;2022-08-25T02:24:13;4.83;;;2.77;;
14078;SDS011;7115;50.150;8.568;2022-08-25T02:26:40;6.27;;;2.97;;
14078;SDS011;7115;50.150;8.568;2022-08-25T02:29:08;4.00;;;2.97;;
14078;SDS011;7115;50.150;8.568;2022-08-25T02:31:36;3.90;;;3.07;;
14078;SDS011;7115;50.150;8.568;2022-08-25T02:34:04;4.23;;;2.70;;
14078;SDS011;7115;50.150;8.568;2022-08-25T02:36:32;5.00;;;3.27;;
14078;SDS011;7115;50.150;8.568;2022-08-25T02:38:59;4.30;;;2.90;;
14078;SDS011;7115;50.150;8.568;2022-08-25T02:41:29;5.03;;;2.90;;
14078;SDS011;7115;50.150;8.568;2022-08-25T02:43:57;4.53;;;3.00;;
14078;SDS011;7115;50.150;8.568;2022-08-25T02:46:24;3.73;;;3.17;;
14078;SDS011;7115;50.150;8.568;2022-08-25T02:48:52;3.93;;;2.70;;
14078;SDS011;7115;50.150;8.568;2022-08-25T02:51:21;8.13;;;3.00;;
14078;SDS011;7115;50.150;8.568;2022-08-25T02:53:48;4.27;;;3.37;;
14078;SDS011;7115;50.150;8.568;2022-08-25T02:56:16;3.93;;;3.10;;
14078;SDS011;7115;50.150;8.568;2022-08-25T02:58:44;5.20;;;2.73;;
14078;SDS011;7115;50.150;8.568;2022-08-25T03:01:12;4.03;;;3.00;;
14078;SDS011;7115;50.150;8.568;2022-08-25T03:03:43;9.13;;;3.63;;
14078;SDS011;7115;50.150;8.568;2022-08-25T03:06:12;4.10;;;3.27;;
14078;SDS011;7115;50.150;8.568;2022-08-25T03:08:41;5.23;;;3.37;;
14078;SDS011;7115;50.150;8.568;2022-08-25T03:11:09;4.63;;;3.60;;
14078;SDS011;7115;50.150;8.568;2022-08-25T03:13:36;5.90;;;3.50;;
14078;SDS011;7115;50.150;8.568;2022-08-25T03:16:04;7.10;;;3.40;;
14078;SDS011;7115;50.150;8.568;2022-08-25T03:18:37;4.53;;;3.37;;
14078;SDS011;7115;50.150;8.568;2022-08-25T03:21:05;5.77;;;4.10;;
14078;SDS011;7115;50.150;8.568;2022-08-25T03:23:32;3.90;;;3.50;;
14078;SDS011;7115;50.150;8.568;2022-08-25T03:25:59;6.87;;;3.77;;
14078;SDS011;7115;50.150;8.568;2022-08-25T03:28:45;4.83;;;3.50;;
14078;SDS011;7115;50.150;8.568;2022-08-25T03:31:12;3.57;;;3.17;;
14078;SDS011;7115;50.150;8.568;2022-08-25T03:33:39;4.00;;;3.30;;
14078;SDS011;7115;50.150;8.568;2022-08-25T03:36:06;4.00;;;3.30;;
14078;SDS011;7115;50.150;8.568;2022-08-25T03:38:34;4.60;;;3.50;;
14078;SDS011;7115;50.150;8.568;2022-08-25T03:41:10;5.10;;;3.50;;
14078;SDS011;7115;50.150;8.568;2022-08-25T03:43:40;4.77;;;3.63;;
14078;SDS011;7115;50.150;8.568;2022-08-25T03:46:07;4.50;;;4.10;;
14078;SDS011;7115;50.150;8.568;2022-08-25T03:48:34;4.57;;;3.50;;
14078;SDS011;7115;50.150;8.568;2022-08-25T03:51:00;6.07;;;3.87;;
14078;SDS011;7115;50.150;8.568;2022-08-25T03:53:27;7.80;;;3.63;;
14078;SDS011;7115;50.150;8.568;2022-08-25T03:55:54;4.63;;;3.40;;
14078;SDS011;7115;50.150;8.568;2022-08-25T03:58:22;6.27;;;3.90;;
14078;SDS011;7115;50.150;8.568;2022-08-25T04:00:49;5.63;;;4.10;;
14078;SDS011;7115;50.150;8.568;2022-08-25T04:03:16;4.03;;;3.57;;
14078;SDS011;7115;50.150;8.568;2022-08-25T04:05:43;6.17;;;3.37;;
14078;SDS011;7115;50.150;8.568;2022-08-25T04:08:11;6.90;;;3.60;;
14078;SDS011;7115;50.150;8.568;2022-08-25T04:10:38;5.10;;;3.70;;
14078;SDS011;7115;50.150;8.568;2022-08-25T04:13:04;5.33;;;3.77;;
14078;SDS011;7115;50.150;8.568;2022-08-25T04:15:31;8.00;;;3.70;;
14078;SDS011;7115;50.150;8.568;2022-08-25T04:18:01;6.50;;;4.27;;
14078;SDS011;7115;50.150;8.568;2022-08-25T04:20:28;6.37;;;4.00;;
14078;SDS011;7115;50.150;8.568;2022-08-25T04:22:55;5.17;;;4.30;;
14078;SDS011;7115;50.150;8.568;2022-08-25T04:25:25;5.70;;;4.20;;
14078;SDS011;7115;50.150;8.568;2022-08-25T04:27:53;5.83;;;3.90;;
14078;SDS011;7115;50.150;8.568;2022-08-25T04:30:20;9.93;;;4.70;;
14078;SDS011;7115;50.150;8.568;2022-08-25T04:32:47;8.20;;;4.17;;
14078;SDS011;7115;50.150;8.568;2022-08-25T04:35:14;6.10;;;3.87;;
14078;SDS011;7115;50.150;8.568;2022-08-25T04:37:41;6.90;;;4.33;;
14078;SDS011;7115;50.150;8.568;2022-08-25T04:40:08;5.70;;;3.80;;
14078;SDS011;7115;50.150;8.568;2022-08-25T04:42:36;7.87;;;5.90;;
14078;SDS011;7115;50.150;8.568;2022-08-25T04:45:03;5.50;;;3.57;;
14078;SDS011;7115;50.150;8.568;2022-08-25T04:47:35;7.40;;;4.20;;
14078;SDS011;7115;50.150;8.568;2022-08-25T04:50:04;4.73;;;4.13;;
14078;SDS011;7115;50.150;8.568;2022-08-25T04:52:31;6.70;;;4.20;;
14078;SDS011;7115;50.150;8.568;2022-08-25T04:54:58;7.07;;;4.70;;
14078;SDS011;7115;50.150;8.568;2022-08-25T04:57:25;9.53;;;4.93;;
14078;SDS011;7115;50.150;8.568;2022-08-25T04:59:52;5.93;;;4.80;;
14078;SDS011;7115;50.150;8.568;2022-08-25T05:02:21;6.83;;;5.07;;
14078;SDS011;7115;50.150;8.568;2022-08-25T05:04:50;7.10;;;4.97;;
14078;SDS011;7115;50.150;8.568;2022-08-25T05:07:17;7.67;;;5.10;;
14078;SDS011;7115;50.150;8.568;2022-08-25T05:09:44;6.63;;;4.80;;
14078;SDS011;7115;50.150;8.568;2022-08-25T05:12:10;11.27;;;5.47;;
14078;SDS011;7115;50.150;8.568;2022-08-25T05:14:37;7.20;;;5.37;;
14078;SDS011;7115;50.150;8.568;2022-08-25T05:17:04;12.73;;;4.93;;
14078;SDS011;7115;50.150;8.568;2022-08-25T05:19:32;10.73;;;5.07;;
14078;SDS011;7115;50.150;8.568;2022-08-25T05:21:58;10.23;;;5.40;;
14078;SDS011;7115;50.150;8.568;2022-08-25T05:24:25;9.67;;;5.87;;
14078;SDS011;7115;50.150;8.568;2022-08-25T05:26:53;7.63;;;5.00;;
14078;SDS011;7115;50.150;8.568;2022-08-25T05:29:20;7.47;;;5.00;;
14078;SDS011;7115;50.150;8.568;2022-08-25T05:31:47;8.30;;;4.80;;
14078;SDS011;7115;50.150;8.568;2022-08-25T05:34:16;6.53;;;4.80;;
14078;SDS011;7115;50.150;8.568;2022-08-25T05:36:44;6.93;;;5.13;;
14078;SDS011;7115;50.150;8.568;2022-08-25T05:39:11;5.50;;;5.00;;
14078;SDS011;7115;50.150;8.568;2022-08-25T05:41:38;8.90;;;5.93;;
14078;SDS011;7115;50.150;8.568;2022-08-25T05:44:06;10.17;;;6.17;;
14078;SDS011;7115;50.150;8.568;2022-08-25T05:46:32;8.47;;;5.37;;
14078;SDS011;7115;50.150;8.568;2022-08-25T05:48:59;7.30;;;4.90;;
14078;SDS011;7115;50.150;8.568;2022-08-25T05:51:26;7.67;;;5.63;;
14078;SDS011;7115;50.150;8.568;2022-08-25T05:53:54;8.33;;;5.53;;
14078;SDS011;7115;50.150;8.568;2022-08-25T05:56:20;6.57;;;5.30;;
14078;SDS011;7115;50.150;8.568;2022-08-25T05:58:47;7.70;;;5.63;;
14078;SDS011;7115;50.150;8.568;2022-08-25T06:01:18;6.37;;;5.53;;
14078;SDS011;7115;50.150;8.568;2022-08-25T06:04:08;6.40;;;5.20;;
14078;SDS011;7115;50.150;8.568;2022-08-25T06:06:36;9.53;;;5.50;;
14078;SDS011;7115;50.150;8.568;2022-08-25T06:09:04;9.93;;;5.40;;
14078;SDS011;7115;50.150;8.568;2022-08-25T06:11:33;6.73;;;5.43;;
14078;SDS011;7115;50.150;8.568;2022-08-25T06:14:02;6.53;;;5.20;;
14078;SDS011;7115;50.150;8.568;2022-08-25T06:16:29;6.47;;;5.37;;
14078;SDS011;7115;50.150;8.568;2022-08-25T06:18:57;7.53;;;5.50;;
14078;SDS011;7115;50.150;8.568;2022-08-25T06:21:23;7.17;;;5.53;;
14078;SDS011;7115;50.150;8.568;2022-08-25T06:23:50;11.17;;;6.37;;
14078;SDS011;7115;50.150;8.568;2022-08-25T06:26:18;6.73;;;5.13;;
14078;SDS011;7115;50.150;8.568;2022-08-25T06:28:46;7.07;;;5.43;;
14078;SDS011;7115;50.150;8.568;2022-08-25T06:31:14;10.50;;;6.00;;
14078;SDS011;7115;50.150;8.568;2022-08-25T06:33:42;12.57;;;6.03;;
14078;SDS011;7115;50.150;8.568;2022-08-25T06:36:09;6.53;;;5.20;;
14078;SDS011;7115;50.150;8.568;2022-08-25T06:38:36;14.43;;;6.57;;
14078;SDS011;7115;50.150;8.568;2022-08-25T06:41:03;8.50;;;6.30;;
14078;SDS011;7115;50.150;8.568;2022-08-25T06:43:32;8.93;;;5.90;;
14078;SDS011;7115;50.150;8.568;2022-08-25T06:46:12;7.47;;;5.60;;
14078;SDS011;7115;50.150;8.568;2022-08-25T06:48:41;9.53;;;6.00;;
14078;SDS011;7115;50.150;8.568;2022-08-25T06:51:09;6.80;;;6.10;;
14078;SDS011;7115;50.150;8.568;2022-08-25T06:53:39;9.90;;;5.97;;
14078;SDS011;7115;50.150;8.568;2022-08-25T06:56:07;12.20;;;9.10;;
14078;SDS011;7115;50.150;8.568;2022-08-25T06:58:34;10.20;;;6.40;;
14078;SDS011;7115;50.150;8.568;2022-08-25T07:01:06;9.60;;;6.60;;
14078;SDS011;7115;50.150;8.568;2022-08-25T07:03:40;8.23;;;6.10;;
14078;SDS011;7115;50.150;8.568;2022-08-25T07:06:08;10.70;;;6.77;;
14078;SDS011;7115;50.150;8.568;2022-08-25T07:08:35;9.83;;;6.37;;
14078;SDS011;7115;50.150;8.568;2022-08-25T07:11:06;9.83;;;5.77;;
14078;SDS011;7115;50.150;8.568;2022-08-25T07:13:42;8.07;;;6.47;;
14078;SDS011;7115;50.150;8.568;2022-08-25T07:16:09;9.07;;;5.80;;
14078;SDS011;7115;50.150;8.568;2022-08-25T07:18:36;8.23;;;5.33;;
14078;SDS011;7115;50.150;8.568;2022-08-25T07:21:03;12.83;;;6.07;;
14078;SDS011;7115;50.150;8.568;2022-08-25T07:23:34;9.13;;;5.43;;
14078;SDS011;7115;50.150;8.568;2022-08-25T07:26:10;9.33;;;5.80;;
14078;SDS011;7115;50.150;8.568;2022-08-25T07:28:59;8.47;;;5.77;;
14078;SDS011;7115;50.150;8.568;2022-08-25T07:31:28;7.77;;;5.43;;
14078;SDS011;7115;50.150;8.568;2022-08-25T07:33:55;10.53;;;5.53;;
14078;SDS011;7115;50.150;8.568;2022-08-25T07:36:41;14.50;;;6.13;;
14078;SDS011;7115;50.150;8.568;2022-08-25T07:39:09;8.13;;;5.60;;
14078;SDS011;7115;50.150;8.568;2022-08-25T07:41:37;5.87;;;5.27;;
14078;SDS011;7115;50.150;8.568;2022-08-25T07:44:06;10.60;;;5.30;;
14078;SDS011;7115;50.150;8.568;2022-08-25T07:46:35;7.17;;;5.40;;
14078;SDS011;7115;50.150;8.568;2022-08-25T07:49:02;7.27;;;4.70;;
14078;SDS011;7115;50.150;8.568;2022-08-25T07:51:41;7.00;;;5.70;;
14078;SDS011;7115;50.150;8.568;2022-08-25T07:54:28;8.60;;;5.83;;
14078;SDS011;7115;50.150;8.568;2022-08-25T07:57:00;7.93;;;5.53;;
14078;SDS011;7115;50.150;8.568;2022-08-25T07:59:31;7.37;;;5.23;;
14078;SDS011;7115;50.150;8.568;2022-08-25T08:02:05;11.23;;;5.63;;
14078;SDS011;7115;50.150;8.568;2022-08-25T08:04:44;6.90;;;5.40;;
14078;SDS011;7115;50.150;8.568;2022-08-25T08:07:18;5.37;;;4.67;;
14078;SDS011;7115;50.150;8.568;2022-08-25T08:09:48;6.53;;;5.13;;
14078;SDS011;7115;50.150;8.568;2022-08-25T08:12:36;6.30;;;4.93;;
14078;SDS011;7115;50.150;8.568;2022-08-25T08:15:03;6.97;;;5.57;;
14078;SDS011;7115;50.150;8.568;2022-08-25T08:17:36;6.63;;;5.97;;
14078;SDS011;7115;50.150;8.568;2022-08-25T08:20:04;8.40;;;5.40;;
14078;SDS011;7115;50.150;8.568;2022-08-25T08:22:34;7.17;;;5.17;;
14078;SDS011;7115;50.150;8.568;2022-08-25T08:25:02;7.73;;;5.37;;
14078;SDS011;7115;50.150;8.568;2022-08-25T08:27:35;6.00;;;4.97;;
14078;SDS011;7115;50.150;8.568;2022-08-25T08:30:03;5.43;;;4.90;;
14078;SDS011;7115;50.150;8.568;2022-08-25T08:32:31;7.90;;;5.37;;
14078;SDS011;7115;50.150;8.568;2022-08-25T08:35:18;7.27;;;4.70;;
14078;SDS011;7115;50.150;8.568;2022-08-25T08:37:44;6.23;;;4.80;;
14078;SDS011;7115;50.150;8.568;2022-08-25T08:40:13;8.20;;;4.77;;
14078;SDS011;7115;50.150;8.568;2022-08-25T08:50:55;14.83;;;7.90;;
14078;SDS011;7115;50.150;8.568;2022-08-25T08:56:41;7.13;;;4.70;;
14078;SDS011;7115;50.150;8.568;2022-08-25T08:59:18;9.83;;;5.07;;
14078;SDS011;7115;50.150;8.568;2022-08-25T09:01:56;6.37;;;4.37;;
14078;SDS011;7115;50.150;8.568;2022-08-25T09:07:03;8.03;;;5.30;;
14078;SDS011;7115;50.150;8.568;2022-08-25T09:09:38;9.87;;;5.23;;
14078;SDS011;7115;50.150;8.568;2022-08-25T09:12:11;5.20;;;4.70;;
14078;SDS011;7115;50.150;8.568;2022-08-25T09:17:46;5.60;;;4.33;;
14078;SDS011;7115;50.150;8.568;2022-08-25T09:20:32;7.87;;;5.20;;
14078;SDS011;7115;50.150;8.568;2022-08-25T09:28:29;6.13;;;4.53;;
14078;SDS011;7115;50.150;8.568;2022-08-25T09:31:07;7.93;;;5.20;;
14078;SDS011;7115;50.150;8.568;2022-08-25T09:33:55;6.20;;;4.53;;
14078;SDS011;7115;50.150;8.568;2022-08-25T09:36:23;6.37;;;5.27;;
14078;SDS011;7115;50.150;8.568;2022-08-25T09:38:50;9.23;;;5.10;;
14078;SDS011;7115;50.150;8.568;2022-08-25T09:41:33;6.40;;;4.97;;
14078;SDS011;7115;50.150;8.568;2022-08-25T09:44:26;5.27;;;4.70;;
14078;SDS011;7115;50.150;8.568;2022-08-25T09:47:05;7.57;;;4.60;;
14078;SDS011;7115;50.150;8.568;2022-08-25T09:49:45;5.60;;;4.27;;
14078;SDS011;7115;50.150;8.568;2022-08-25T10:00:09;5.33;;;4.83;;
14078;SDS011;7115;50.150;8.568;2022-08-25T10:02:39;5.70;;;5.20;;
14078;SDS011;7115;50.150;8.568;2022-08-25T10:05:18;4.97;;;4.47;;
14078;SDS011;7115;50.150;8.568;2022-08-25T10:07:55;4.70;;;4.30;;
14078;SDS011;7115;50.150;8.568;2022-08-25T10:13:00;6.27;;;4.30;;
14078;SDS011;7115;50.150;8.568;2022-08-25T10:15:33;5.27;;;4.27;;
14078;SDS011;7115;50.150;8.568;2022-08-25T10:23:28;5.53;;;4.20;;
14078;SDS011;7115;50.150;8.568;2022-08-25T10:25:59;5.37;;;4.17;;
14078;SDS011;7115;50.150;8.568;2022-08-25T10:28:39;6.53;;;4.87;;
14078;SDS011;7115;50.150;8.568;2022-08-25T10:31:28;5.30;;;4.57;;
14078;SDS011;7115;50.150;8.568;2022-08-25T10:45:20;5.23;;;4.73;;
14078;SDS011;7115;50.150;8.568;2022-08-25T10:51:10;5.13;;;4.33;;
14078;SDS011;7115;50.150;8.568;2022-08-25T10:56:44;6.63;;;4.60;;
14078;SDS011;7115;50.150;8.568;2022-08-25T11:07:37;5.03;;;4.60;;
14078;SDS011;7115;50.150;8.568;2022-08-25T11:10:10;4.87;;;4.33;;
14078;SDS011;7115;50.150;8.568;2022-08-25T11:12:54;7.87;;;4.77;;
14078;SDS011;7115;50.150;8.568;2022-08-25T11:15:28;7.20;;;4.27;;
14078;SDS011;7115;50.150;8.568;2022-08-25T11:20:42;4.73;;;4.07;;
14078;SDS011;7115;50.150;8.568;2022-08-25T11:25:58;5.60;;;4.93;;
14078;SDS011;7115;50.150;8.568;2022-08-25T11:28:31;6.80;;;5.37;;
14078;SDS011;7115;50.150;8.568;2022-08-25T11:31:19;5.67;;;4.83;;
14078;SDS011;7115;50.150;8.568;2022-08-25T11:33:48;6.33;;;4.83;;
14078;SDS011;7115;50.150;8.568;2022-08-25T11:36:21;6.00;;;4.80;;
14078;SDS011;7115;50.150;8.568;2022-08-25T11:50:34;5.50;;;4.07;;
14078;SDS011;7115;50.150;8.568;2022-08-25T11:53:26;5.70;;;4.20;;
14078;SDS011;7115;50.150;8.568;2022-08-25T11:56:10;4.50;;;4.03;;
14078;SDS011;7115;50.150;8.568;2022-08-25T11:58:57;6.00;;;3.92;;
14078;SDS011;7115;50.150;8.568;2022-08-25T12:12:29;4.78;;;4.10;;
14078;SDS011;7115;50.150;8.568;2022-08-25T12:17:57;4.72;;;4.10;;
14078;SDS011;7115;50.150;8.568;2022-08-25T12:29:15;4.65;;;3.47;;
14078;SDS011;7115;50.150;8.568;2022-08-25T12:37:26;4.33;;;3.63;;
14078;SDS011;7115;50.150;8.568;2022-08-25T12:39:55;3.63;;;3.27;;
14078;SDS011;7115;50.150;8.568;2022-08-25T12:42:35;4.27;;;3.23;;
14078;SDS011;7115;50.150;8.568;2022-08-25T12:47:39;3.60;;;3.30;;
14078;SDS011;7115;50.150;8.568;2022-08-25T12:53:10;4.40;;;3.47;;
14078;SDS011;7115;50.150;8.568;2022-08-25T13:01:32;3.33;;;2.90;;
14078;SDS011;7115;50.150;8.568;2022-08-25T13:04:28;3.97;;;3.20;;
14078;SDS011;7115;50.150;8.568;2022-08-25T13:15:59;4.23;;;3.60;;
14078;SDS011;7115;50.150;8.568;2022-08-25T13:18:32;5.37;;;3.50;;
14078;SDS011;7115;50.150;8.568;2022-08-25T13:23:33;5.53;;;3.00;;
14078;SDS011;7115;50.150;8.568;2022-08-25T13:26:02;5.03;;;3.67;;
14078;SDS011;7115;50.150;8.568;2022-08-25T13:28:35;5.30;;;3.20;;
14078;SDS011;7115;50.150;8.568;2022-08-25T13:34:18;3.97;;;3.37;;
14078;SDS011;7115;50.150;8.568;2022-08-25T13:36:45;5.47;;;3.63;;
14078;SDS011;7115;50.150;8.568;2022-08-25T13:39:33;4.60;;;3.33;;
14078;SDS011;7115;50.150;8.568;2022-08-25T13:42:21;4.27;;;3.43;;
14078;SDS011;7115;50.150;8.568;2022-08-25T13:44:54;3.47;;;3.17;;
14078;SDS011;7115;50.150;8.568;2022-08-25T13:47:43;5.90;;;3.00;;
14078;SDS011;7115;50.150;8.568;2022-08-25T13:53:20;4.53;;;3.00;;
14078;SDS011;7115;50.150;8.568;2022-08-25T13:55:50;3.67;;;2.77;;
14078;SDS011;7115;50.150;8.568;2022-08-25T13:58:28;3.37;;;2.90;;
14078;SDS011;7115;50.150;8.568;2022-08-25T14:06:45;6.27;;;3.30;;
14078;SDS011;7115;50.150;8.568;2022-08-25T14:09:16;7.53;;;3.37;;
14078;SDS011;7115;50.150;8.568;2022-08-25T14:11:56;4.03;;;3.23;;
14078;SDS011;7115;50.150;8.568;2022-08-25T14:16:52;3.37;;;3.00;;
14078;SDS011;7115;50.150;8.568;2022-08-25T14:19:27;4.23;;;3.50;;
14078;SDS011;7115;50.150;8.568;2022-08-25T14:21:56;3.70;;;3.33;;
14078;SDS011;7115;50.150;8.568;2022-08-25T14:24:32;5.10;;;3.17;;
14078;SDS011;7115;50.150;8.568;2022-08-25T14:27:06;3.97;;;3.43;;
14078;SDS011;7115;50.150;8.568;2022-08-25T14:29:37;4.43;;;3.43;;
14078;SDS011;7115;50.150;8.568;2022-08-25T14:32:06;3.97;;;3.57;;
14078;SDS011;7115;50.150;8.568;2022-08-25T14:34:35;5.07;;;3.33;;
14078;SDS011;7115;50.150;8.568;2022-08-25T14:37:16;3.43;;;3.13;;
14078;SDS011;7115;50.150;8.568;2022-08-25T14:39:45;4.27;;;2.90;;
14078;SDS011;7115;50.150;8.568;2022-08-25T14:42:12;4.17;;;3.07;;
14078;SDS011;7115;50.150;8.568;2022-08-25T14:44:39;3.50;;;3.20;;
14078;SDS011;7115;50.150;8.568;2022-08-25T14:47:06;5.80;;;3.40;;
14078;SDS011;7115;50.150;8.568;2022-08-25T14:49:35;3.23;;;2.90;;
14078;SDS011;7115;50.150;8.568;2022-08-25T14:52:07;4.93;;;3.20;;
14078;SDS011;7115;50.150;8.568;2022-08-25T14:54:39;3.40;;;2.90;;
14078;SDS011;7115;50.150;8.568;2022-08-25T14:57:06;7.47;;;3.30;;
14078;SDS011;7115;50.150;8.568;2022-08-25T14:59:34;5.07;;;3.30;;
14078;SDS011;7115;50.150;8.568;2022-08-25T15:02:08;3.70;;;3.10;;
14078;SDS011;7115;50.150;8.568;2022-08-25T15:04:39;3.87;;;3.10;;
14078;SDS011;7115;50.150;8.568;2022-08-25T15:07:16;4.10;;;3.17;;
14078;SDS011;7115;50.150;8.568;2022-08-25T15:10:05;5.07;;;3.57;;
14078;SDS011;7115;50.150;8.568;2022-08-25T15:12:33;4.77;;;2.93;;
14078;SDS011;7115;50.150;8.568;2022-08-25T15:15:12;3.17;;;2.87;;
14078;SDS011;7115;50.150;8.568;2022-08-25T15:17:39;7.47;;;3.67;;
14078;SDS011;7115;50.150;8.568;2022-08-25T15:20:10;5.83;;;3.70;;
14078;SDS011;7115;50.150;8.568;2022-08-25T15:22:37;3.50;;;3.20;;
14078;SDS011;7115;50.150;8.568;2022-08-25T15:25:07;10.93;;;6.77;;
14078;SDS011;7115;50.150;8.568;2022-08-25T15:27:34;6.47;;;4.40;;
14078;SDS011;7115;50.150;8.568;2022-08-25T15:30:02;6.13;;;3.33;;
14078;SDS011;7115;50.150;8.568;2022-08-25T15:32:30;5.00;;;3.00;;
14078;SDS011;7115;50.150;8.568;2022-08-25T15:34:57;4.97;;;3.10;;
14078;SDS011;7115;50.150;8.568;2022-08-25T15:37:25;6.47;;;3.83;;
14078;SDS011;7115;50.150;8.568;2022-08-25T15:39:52;3.57;;;3.13;;
14078;SDS011;7115;50.150;8.568;2022-08-25T15:42:19;4.30;;;3.20;;
14078;SDS011;7115;50.150;8.568;2022-08-25T15:44:46;5.57;;;3.30;;
14078;SDS011;7115;50.150;8.568;2022-08-25T15:47:18;3.13;;;2.83;;
14078;SDS011;7115;50.150;8.568;2022-08-25T15:49:46;4.20;;;3.80;;
14078;SDS011;7115;50.150;8.568;2022-08-25T15:52:12;3.63;;;3.33;;
14078;SDS011;7115;50.150;8.568;2022-08-25T15:54:39;4.83;;;3.93;;
14078;SDS011;7115;50.150;8.568;2022-08-25T15:57:07;4.93;;;3.60;;
14078;SDS011;7115;50.150;8.568;2022-08-25T15:59:37;3.37;;;3.03;;
14078;SDS011;7115;50.150;8.568;2022-08-25T16:02:06;5.13;;;3.50;;
14078;SDS011;7115;50.150;8.568;2022-08-25T16:04:40;4.20;;;3.00;;
14078;SDS011;7115;50.150;8.568;2022-08-25T16:07:07;4.60;;;3.13;;
14078;SDS011;7115;50.150;8.568;2022-08-25T16:09:39;5.03;;;3.37;;
14078;SDS011;7115;50.150;8.568;2022-08-25T16:12:06;3.70;;;3.00;;
14078;SDS011;7115;50.150;8.568;2022-08-25T16:14:34;4.80;;;3.73;;
14078;SDS011;7115;50.150;8.568;2022-08-25T16:17:02;5.13;;;3.80;;
14078;SDS011;7115;50.150;8.568;2022-08-25T16:19:30;5.60;;;4.00;;
14078;SDS011;7115;50.150;8.568;2022-08-25T16:21:57;4.33;;;3.53;;
14078;SDS011;7115;50.150;8.568;2022-08-25T16:24:25;5.23;;;3.63;;
14078;SDS011;7115;50.150;8.568;2022-08-25T16:26:52;7.47;;;3.90;;
14078;SDS011;7115;50.150;8.568;2022-08-25T16:29:21;4.67;;;3.90;;
14078;SDS011;7115;50.150;8.568;2022-08-25T16:31:47;5.40;;;3.97;;
14078;SDS011;7115;50.150;8.568;2022-08-25T16:34:20;8.83;;;3.90;;
14078;SDS011;7115;50.150;8.568;2022-08-25T16:36:50;3.97;;;3.63;;
14078;SDS011;7115;50.150;8.568;2022-08-25T16:39:18;4.37;;;3.60;;
14078;SDS011;7115;50.150;8.568;2022-08-25T16:41:46;5.47;;;3.03;;
14078;SDS011;7115;50.150;8.568;2022-08-25T16:44:13;6.53;;;4.13;;
14078;SDS011;7115;50.150;8.568;2022-08-25T16:46:40;7.00;;;6.00;;
14078;SDS011;7115;50.150;8.568;2022-08-25T16:49:10;10.67;;;5.40;;
14078;SDS011;7115;50.150;8.568;2022-08-25T16:51:41;6.50;;;4.33;;
14078;SDS011;7115;50.150;8.568;2022-08-25T16:54:09;4.27;;;3.57;;
14078;SDS011;7115;50.150;8.568;2022-08-25T16:56:55;8.50;;;3.80;;
14078;SDS011;7115;50.150;8.568;2022-08-25T16:59:23;4.03;;;3.67;;
14078;SDS011;7115;50.150;8.568;2022-08-25T17:01:51;13.93;;;6.73;;
14078;SDS011;7115;50.150;8.568;2022-08-25T17:04:18;5.43;;;3.60;;
14078;SDS011;7115;50.150;8.568;2022-08-25T17:06:54;10.13;;;5.43;;
14078;SDS011;7115;50.150;8.568;2022-08-25T17:09:21;7.37;;;4.33;;
14078;SDS011;7115;50.150;8.568;2022-08-25T17:11:49;8.23;;;4.27;;
14078;SDS011;7115;50.150;8.568;2022-08-25T17:14:19;9.33;;;7.97;;
14078;SDS011;7115;50.150;8.568;2022-08-25T17:16:46;15.23;;;9.17;;
14078;SDS011;7115;50.150;8.568;2022-08-25T17:19:16;7.10;;;4.53;;
14078;SDS011;7115;50.150;8.568;2022-08-25T17:21:43;8.87;;;4.50;;
14078;SDS011;7115;50.150;8.568;2022-08-25T17:24:11;4.93;;;4.07;;
14078;SDS011;7115;50.150;8.568;2022-08-25T17:26:39;6.00;;;4.23;;
14078;SDS011;7115;50.150;8.568;2022-08-25T17:29:08;5.20;;;3.80;;
14078;SDS011;7115;50.150;8.568;2022-08-25T17:31:35;4.97;;;3.73;;
14078;SDS011;7115;50.150;8.568;2022-08-25T17:34:06;5.67;;;3.77;;
14078;SDS011;7115;50.150;8.568;2022-08-25T17:36:35;4.30;;;3.90;;
14078;SDS011;7115;50.150;8.568;2022-08-25T17:39:02;9.70;;;6.63;;
14078;SDS011;7115;50.150;8.568;2022-08-25T17:41:30;7.40;;;5.53;;
14078;SDS011;7115;50.150;8.568;2022-08-25T17:44:02;8.10;;;3.80;;
14078;SDS011;7115;50.150;8.568;2022-08-25T17:46:29;9.13;;;5.50;;
14078;SDS011;7115;50.150;8.568;2022-08-25T17:48:56;4.10;;;3.10;;
14078;SDS011;7115;50.150;8.568;2022-08-25T17:51:23;5.47;;;3.40;;
14078;SDS011;7115;50.150;8.568;2022-08-25T17:53:50;3.93;;;3.53;;